Time;durP1;ratioP1;P1;durP2;ratioP2;P2;SDS_P1;SDS_P2;PMS_P1;PMS_P2;Temp;Humidity;BMP_temperature;BMP_pressure;BME280_temperature;BME280_humidity;BME280_pressure;Samples;Min_cycle;Max_cycle;Signal;HPM_P1;HPM_P2
2023/11/07 00:01:49;;;;;;;0.10;0.10;;;8.40;99.90;;;;;;5049495;28;20032;-75
2023/11/07 00:04:15;;;;;;;0.10;0.10;;;8.40;99.90;;;;;;5043142;28;20154;-75
2023/11/07 00:06:41;;;;;;;11.98;3.13;;;8.30;99.90;;;;;;5042312;28;20033;-74
2023/11/07 00:09:10;;;;;;;0.13;0.13;;;8.20;99.90;;;;;;5049618;28;20521;-75
2023/11/07 00:11:36;;;;;;;0.00;0.00;;;8.30;99.90;;;;;;5048796;28;20025;-75
2023/11/07 00:14:02;;;;;;;0.50;0.50;;;8.40;99.90;;;;;;5044349;28;20033;-74
2023/11/07 00:16:28;;;;;;;0.10;0.10;;;8.30;99.90;;;;;;5049191;28;20028;-74
2023/11/07 00:18:55;;;;;;;0.20;0.20;;;8.30;99.90;;;;;;5048043;28;20056;-74
2023/11/07 00:21:22;;;;;;;0.10;0.10;;;8.40;99.90;;;;;;5047816;28;20032;-74
2023/11/07 00:23:48;;;;;;;0.30;0.30;;;8.30;99.90;;;;;;5050167;28;20013;-74
2023/11/07 00:26:14;;;;;;;0.30;0.30;;;8.30;99.90;;;;;;5048155;28;20149;-74
2023/11/07 00:28:40;;;;;;;0.10;0.10;;;8.40;99.90;;;;;;5049035;28;20733;-74
2023/11/07 00:31:06;;;;;;;2.13;1.73;;;8.40;99.90;;;;;;5048474;28;20832;-74
2023/11/07 00:33:32;;;;;;;0.10;0.10;;;8.50;99.90;;;;;;5048632;28;21140;-74
2023/11/07 00:35:58;;;;;;;0.10;0.10;;;8.40;99.90;;;;;;5048589;28;20024;-75
2023/11/07 00:38:26;;;;;;;0.10;0.10;;;8.40;99.90;;;;;;5048928;28;20032;-75
2023/11/07 00:40:52;;;;;;;0.10;0.10;;;8.40;99.90;;;;;;5048629;28;20393;-76
2023/11/07 00:43:17;;;;;;;0.10;0.10;;;8.50;99.90;;;;;;5050193;28;20074;-75
2023/11/07 00:45:43;;;;;;;0.10;0.10;;;8.50;99.90;;;;;;5047473;28;20037;-75
2023/11/07 00:48:10;;;;;;;0.10;0.10;;;8.40;99.90;;;;;;5049757;28;20893;-76
2023/11/07 00:50:36;;;;;;;0.00;0.00;;;8.40;99.90;;;;;;5048989;28;20025;-76
2023/11/07 00:53:03;;;;;;;0.00;0.00;;;8.40;99.90;;;;;;5049225;28;20120;-76
2023/11/07 00:55:29;;;;;;;0.10;0.10;;;8.40;99.90;;;;;;5048889;28;20017;-75
2023/11/07 00:57:55;;;;;;;0.10;0.10;;;8.30;99.90;;;;;;5047014;28;20806;-76
2023/11/07 01:00:21;;;;;;;0.10;0.10;;;8.40;99.90;;;;;;5048476;28;20032;-75
2023/11/07 01:02:47;;;;;;;0.00;0.00;;;8.40;99.90;;;;;;5047124;28;20036;-74
2023/11/07 01:05:13;;;;;;;0.10;0.10;;;8.50;99.90;;;;;;5049114;28;20295;-75
2023/11/07 01:07:39;;;;;;;0.00;0.00;;;8.60;99.90;;;;;;5048495;28;20029;-74
2023/11/07 01:10:09;;;;;;;0.10;0.10;;;8.40;99.90;;;;;;5047119;28;20314;-75
2023/11/07 01:12:34;;;;;;;0.00;0.00;;;8.50;99.90;;;;;;5048565;28;20045;-74
2023/11/07 01:15:00;;;;;;;0.00;0.00;;;8.40;99.90;;;;;;5042517;28;20590;-74
2023/11/07 01:17:26;;;;;;;0.10;0.10;;;8.50;99.90;;;;;;5047107;28;20161;-74
2023/11/07 01:19:52;;;;;;;0.10;0.10;;;8.50;99.90;;;;;;5048341;28;20133;-74
2023/11/07 01:22:17;;;;;;;0.10;0.10;;;8.50;99.90;;;;;;5047105;28;20108;-74
2023/11/07 01:24:43;;;;;;;0.10;0.10;;;8.50;99.90;;;;;;5046607;28;21157;-74
2023/11/07 01:27:09;;;;;;;0.10;0.10;;;8.50;99.90;;;;;;5057284;28;20028;-74
2023/11/07 01:29:34;;;;;;;0.10;0.10;;;8.60;99.90;;;;;;5047216;28;20057;-74
2023/11/07 01:32:00;;;;;;;0.10;0.10;;;8.60;99.90;;;;;;5046325;28;20041;-74
2023/11/07 01:34:25;;;;;;;0.10;0.10;;;8.60;99.90;;;;;;5046534;28;20036;-74
2023/11/07 01:36:51;;;;;;;0.10;0.10;;;8.60;99.90;;;;;;5047998;28;20808;-74
2023/11/07 01:39:17;;;;;;;0.10;0.10;;;8.50;99.90;;;;;;5047311;28;20064;-74
2023/11/07 01:41:42;;;;;;;0.10;0.10;;;8.50;99.90;;;;;;5054957;28;20053;-74
2023/11/07 01:44:09;;;;;;;0.00;0.00;;;8.40;99.90;;;;;;5048617;28;20508;-74
2023/11/07 01:46:35;;;;;;;0.10;0.10;;;8.40;99.90;;;;;;5050577;28;20051;-73
2023/11/07 01:49:01;;;;;;;0.00;0.00;;;8.50;99.90;;;;;;5050613;28;20029;-73
2023/11/07 01:51:27;;;;;;;0.10;0.10;;;8.50;99.90;;;;;;5047523;28;20029;-73
2023/11/07 01:53:53;;;;;;;0.10;0.10;;;8.50;99.90;;;;;;5053784;28;20028;-73
2023/11/07 01:56:20;;;;;;;0.10;0.10;;;8.50;99.90;;;;;;5047601;28;20563;-73
2023/11/07 01:58:47;;;;;;;0.10;0.10;;;8.50;99.90;;;;;;5047749;28;20037;-73
2023/11/07 02:01:12;;;;;;;0.10;0.10;;;8.40;99.90;;;;;;5049795;28;20381;-72
2023/11/07 02:03:38;;;;;;;0.00;0.00;;;8.50;99.90;;;;;;5046853;28;20040;-72
2023/11/07 02:06:06;;;;;;;0.10;0.10;;;8.50;99.90;;;;;;5049875;28;20032;-72
2023/11/07 02:08:31;;;;;;;0.10;0.10;;;8.50;99.90;;;;;;5046836;28;20134;-73
2023/11/07 02:10:57;;;;;;;0.10;0.10;;;8.50;99.90;;;;;;5043148;28;20057;-73
2023/11/07 02:13:23;;;;;;;0.10;0.10;;;8.50;99.90;;;;;;5045923;28;20094;-72
2023/11/07 02:15:48;;;;;;;0.10;0.10;;;8.50;99.90;;;;;;5040850;28;20029;-72
2023/11/07 02:18:14;;;;;;;0.10;0.10;;;8.60;99.90;;;;;;5060067;28;20022;-73
2023/11/07 02:20:41;;;;;;;0.10;0.10;;;8.50;99.90;;;;;;5044428;28;20025;-73
2023/11/07 02:23:30;;;;;;;0.10;0.10;;;8.50;99.90;;;;;;5046084;28;20017;-73
2023/11/07 02:25:56;;;;;;;0.10;0.10;;;8.50;99.90;;;;;;5052342;28;20101;-73
2023/11/07 02:28:22;;;;;;;0.10;0.10;;;8.50;99.90;;;;;;5048300;28;20025;-73
2023/11/07 02:30:48;;;;;;;0.08;0.08;;;8.50;99.90;;;;;;5046734;28;20680;-73
2023/11/07 02:33:14;;;;;;;0.10;0.10;;;8.60;99.90;;;;;;5045997;28;20175;-73
2023/11/07 02:35:41;;;;;;;0.00;0.00;;;8.50;99.90;;;;;;5047584;28;20027;-73
2023/11/07 02:38:07;;;;;;;;;;;8.30;99.90;;;;;;5045963;28;20016;-73
2023/11/07 02:40:33;;;;;;;0.20;0.20;;;8.30;99.90;;;;;;5046289;28;19905;-74
2023/11/07 02:43:04;;;;;;;0.10;0.10;;;8.50;99.90;;;;;;5045639;28;20040;-74
2023/11/07 02:45:30;;;;;;;0.10;0.10;;;8.20;99.90;;;;;;5034051;28;20033;-74
2023/11/07 02:47:56;;;;;;;0.10;0.10;;;8.40;99.90;;;;;;5046061;28;20059;-74
2023/11/07 02:50:22;;;;;;;0.10;0.10;;;8.50;99.90;;;;;;5047523;28;20060;-74
2023/11/07 02:52:48;;;;;;;0.10;0.10;;;8.50;99.90;;;;;;5041599;28;20553;-74
2023/11/07 02:55:14;;;;;;;0.10;0.10;;;8.50;99.90;;;;;;5045139;28;20029;-74
2023/11/07 02:57:40;;;;;;;0.00;0.00;;;8.50;99.90;;;;;;5046602;28;20510;-74
2023/11/07 03:00:09;;;;;;;0.00;0.00;;;8.50;99.90;;;;;;5043331;28;20052;-74
2023/11/07 03:02:36;;;;;;;0.10;0.10;;;8.60;99.90;;;;;;5039778;28;20022;-74
2023/11/07 03:05:04;;;;;;;0.08;0.08;;;8.60;99.90;;;;;;5037389;28;20037;-74
2023/11/07 03:07:30;;;;;;;0.08;0.08;;;8.50;99.90;;;;;;5045730;28;20029;-74
2023/11/07 03:09:57;;;;;;;0.05;0.05;;;8.50;99.90;;;;;;5045993;28;20083;-74
2023/11/07 03:12:23;;;;;;;0.10;0.10;;;8.50;99.90;;;;;;5045592;28;20037;-74
2023/11/07 03:14:49;;;;;;;0.00;0.00;;;8.50;99.90;;;;;;5049712;28;20036;-73
2023/11/07 03:17:15;;;;;;;0.10;0.10;;;8.50;99.90;;;;;;5048799;28;20076;-74
2023/11/07 03:19:41;;;;;;;0.03;0.03;;;8.50;99.90;;;;;;5049602;28;20044;-74
2023/11/07 03:22:06;;;;;;;0.05;0.05;;;8.50;99.90;;;;;;5051543;28;20025;-74
2023/11/07 03:24:32;;;;;;;0.08;0.08;;;8.50;99.90;;;;;;5051196;28;20864;-74
2023/11/07 03:26:58;;;;;;;0.10;0.10;;;8.50;99.90;;;;;;5049928;28;20068;-73
2023/11/07 03:29:24;;;;;;;0.00;0.00;;;8.60;99.90;;;;;;5050207;28;20021;-75
2023/11/07 03:31:50;;;;;;;0.10;0.10;;;8.60;99.90;;;;;;5049362;28;20032;-72
2023/11/07 03:34:16;;;;;;;0.10;0.10;;;8.60;99.90;;;;;;5049527;28;20105;-74
2023/11/07 03:36:42;;;;;;;0.10;0.10;;;8.60;99.90;;;;;;5048446;28;20028;-73
2023/11/07 03:39:07;;;;;;;0.10;0.10;;;8.50;99.90;;;;;;5044456;28;20025;-74
2023/11/07 03:41:33;;;;;;;0.10;0.10;;;8.60;99.90;;;;;;5048592;28;20049;-74
2023/11/07 03:43:59;;;;;;;0.10;0.10;;;8.50;99.90;;;;;;5048736;28;20120;-74
2023/11/07 03:46:24;;;;;;;0.10;0.10;;;8.50;99.90;;;;;;5047610;28;20028;-74
2023/11/07 03:48:51;;;;;;;0.10;0.10;;;8.60;99.90;;;;;;5048602;28;20041;-74
2023/11/07 03:51:17;;;;;;;0.10;0.10;;;8.50;99.90;;;;;;5048679;28;20032;-74
2023/11/07 03:53:42;;;;;;;0.08;0.08;;;8.40;99.90;;;;;;5049752;28;20036;-73
2023/11/07 03:56:09;;;;;;;0.10;0.10;;;8.50;99.90;;;;;;5048757;28;20021;-74
2023/11/07 03:58:35;;;;;;;0.10;0.10;;;8.50;99.90;;;;;;5048157;28;20545;-73
2023/11/07 04:01:00;;;;;;;0.38;0.38;;;8.50;99.90;;;;;;5049081;28;20021;-73
2023/11/07 04:03:26;;;;;;;0.10;0.10;;;8.50;99.90;;;;;;5048609;28;20033;-73
2023/11/07 04:05:53;;;;;;;0.00;0.00;;;8.30;99.90;;;;;;5046180;28;20537;-73
2023/11/07 04:08:19;;;;;;;0.10;0.10;;;8.40;99.90;;;;;;5049944;28;20120;-73
2023/11/07 04:10:45;;;;;;;0.10;0.10;;;8.30;99.90;;;;;;5046975;28;20151;-73
2023/11/07 04:13:11;;;;;;;0.10;0.10;;;8.40;99.90;;;;;;5042705;28;20106;-73
2023/11/07 04:15:36;;;;;;;0.10;0.10;;;8.50;99.90;;;;;;5047777;28;20448;-73
2023/11/07 04:18:03;;;;;;;0.10;0.10;;;8.50;99.90;;;;;;5045240;28;20052;-73
2023/11/07 04:20:28;;;;;;;0.10;0.10;;;8.50;99.90;;;;;;5048221;28;20017;-73
2023/11/07 04:22:54;;;;;;;0.10;0.10;;;8.40;99.90;;;;;;5044223;28;20040;-73
2023/11/07 04:25:20;;;;;;;0.10;0.10;;;8.50;99.90;;;;;;5043115;28;20036;-74
2023/11/07 04:27:46;;;;;;;0.10;0.10;;;8.50;99.90;;;;;;5045464;28;20040;-73
2023/11/07 04:30:13;;;;;;;0.10;0.10;;;8.50;99.90;;;;;;5042740;28;20028;-73
2023/11/07 04:32:39;;;;;;;0.20;0.20;;;8.40;99.90;;;;;;5047091;28;20102;-73
2023/11/07 04:35:06;;;;;;;0.10;0.10;;;8.40;99.90;;;;;;5039806;28;20032;-73
2023/11/07 04:37:32;;;;;;;0.10;0.10;;;8.40;99.90;;;;;;5042320;28;20778;-73
2023/11/07 04:39:58;;;;;;;0.10;0.10;;;8.40;99.90;;;;;;5048604;28;20029;-74
2023/11/07 04:42:23;;;;;;;0.47;0.32;;;8.50;99.90;;;;;;5045095;28;20059;-73
2023/11/07 04:44:50;;;;;;;0.10;0.10;;;8.40;99.90;;;;;;5046180;28;20059;-74
2023/11/07 04:47:17;;;;;;;0.10;0.10;;;8.40;99.90;;;;;;5043531;28;20060;-73
2023/11/07 04:49:43;;;;;;;0.20;0.20;;;8.50;99.90;;;;;;5049271;28;20032;-73
2023/11/07 04:52:08;;;;;;;0.10;0.10;;;8.50;99.90;;;;;;5050045;28;20486;-73
2023/11/07 04:54:34;;;;;;;0.20;0.20;;;8.50;99.90;;;;;;5049813;28;20017;-73
2023/11/07 04:57:00;;;;;;;0.10;0.10;;;8.50;99.90;;;;;;5047731;28;20060;-73
2023/11/07 04:59:26;;;;;;;0.08;0.08;;;8.50;99.90;;;;;;5047284;28;20039;-74
2023/11/07 05:01:56;;;;;;;0.10;0.10;;;8.50;99.90;;;;;;5048988;28;20045;-74
2023/11/07 05:04:22;;;;;;;0.10;0.10;;;8.50;99.90;;;;;;5049337;28;20060;-74
2023/11/07 05:06:47;;;;;;;0.10;0.10;;;8.50;99.90;;;;;;5047082;28;20515;-74
2023/11/07 05:09:13;;;;;;;0.10;0.10;;;8.40;99.90;;;;;;5038861;28;20026;-73
2023/11/07 05:11:40;;;;;;;0.10;0.10;;;8.40;99.90;;;;;;5038988;28;20404;-73
2023/11/07 05:14:08;;;;;;;0.10;0.10;;;8.30;99.90;;;;;;5045245;28;20025;-73
2023/11/07 05:16:38;;;;;;;0.10;0.10;;;8.30;99.90;;;;;;5049076;28;20028;-73
2023/11/07 05:19:07;;;;;;;0.10;0.10;;;8.30;99.90;;;;;;5034751;28;20036;-73
2023/11/07 05:21:34;;;;;;;0.10;0.10;;;8.30;99.90;;;;;;5046375;28;20075;-73
2023/11/07 05:23:59;;;;;;;0.10;0.10;;;8.30;99.90;;;;;;5049095;28;20051;-73
2023/11/07 05:26:25;;;;;;;0.08;0.08;;;8.30;99.90;;;;;;5045587;28;20507;-73
2023/11/07 05:28:51;;;;;;;0.10;0.10;;;8.30;99.90;;;;;;5044418;28;20049;-73
2023/11/07 05:31:17;;;;;;;0.10;0.10;;;8.40;99.90;;;;;;5044688;28;20033;-74
2023/11/07 05:33:45;;;;;;;0.10;0.10;;;8.40;99.90;;;;;;5047619;28;20037;-73
2023/11/07 05:36:11;;;;;;;0.10;0.10;;;8.30;99.90;;;;;;5037306;28;20072;-73
2023/11/07 05:38:37;;;;;;;0.10;0.10;;;8.30;99.90;;;;;;5042754;28;20029;-75
2023/11/07 05:41:04;;;;;;;0.10;0.10;;;8.30;99.90;;;;;;5046651;28;20829;-75
2023/11/07 05:43:30;;;;;;;;;;;8.20;99.90;;;;;;5039396;28;20091;-75
2023/11/07 05:45:56;;;;;;;0.10;0.10;;;8.30;99.90;;;;;;5039620;28;19912;-75
2023/11/07 05:48:24;;;;;;;0.35;0.35;;;8.30;99.90;;;;;;5047647;28;20032;-75
2023/11/07 05:50:50;;;;;;;0.10;0.10;;;8.30;99.90;;;;;;5039548;28;20028;-75
2023/11/07 05:53:17;;;;;;;0.10;0.10;;;8.40;99.90;;;;;;5042730;28;20068;-74
2023/11/07 05:55:43;;;;;;;1.20;1.20;;;8.40;99.90;;;;;;5041255;28;20029;-73
2023/11/07 05:58:09;;;;;;;0.10;0.10;;;8.40;99.90;;;;;;5042617;28;20108;-74
2023/11/07 06:00:34;;;;;;;0.10;0.10;;;8.40;99.90;;;;;;5045098;28;20025;-74
2023/11/07 06:03:00;;;;;;;0.10;0.10;;;8.40;99.90;;;;;;5039837;28;20055;-73
2023/11/07 06:05:26;;;;;;;0.10;0.10;;;8.40;99.90;;;;;;5048244;28;20933;-73
2023/11/07 06:07:55;;;;;;;0.10;0.10;;;8.40;99.90;;;;;;5042825;28;20291;-74
2023/11/07 06:10:21;;;;;;;0.10;0.10;;;8.40;99.90;;;;;;5046533;28;20024;-74
2023/11/07 06:12:48;;;;;;;0.10;0.10;;;8.30;99.90;;;;;;5036635;28;20036;-74
2023/11/07 06:15:14;;;;;;;0.10;0.10;;;8.30;99.90;;;;;;5044345;28;20033;-76
2023/11/07 06:17:39;;;;;;;0.10;0.10;;;8.20;99.90;;;;;;5044325;28;20102;-77
2023/11/07 06:20:06;;;;;;;0.00;0.00;;;8.20;99.90;;;;;;5041809;28;20025;-76
2023/11/07 06:22:32;;;;;;;1.40;1.35;;;8.20;99.90;;;;;;5041439;28;20086;-77
2023/11/07 06:24:58;;;;;;;0.10;0.10;;;8.20;99.90;;;;;;5044187;28;20028;-77
2023/11/07 06:27:24;;;;;;;0.10;0.10;;;8.40;99.90;;;;;;5041486;28;20043;-76
2023/11/07 06:29:49;;;;;;;0.00;0.00;;;8.30;99.90;;;;;;5039173;28;20032;-76
2023/11/07 06:32:15;;;;;;;0.10;0.10;;;8.40;99.90;;;;;;5040106;28;20113;-77
2023/11/07 06:34:40;;;;;;;0.20;0.20;;;8.30;99.90;;;;;;5047977;28;20061;-75
2023/11/07 06:37:07;;;;;;;0.10;0.10;;;8.30;99.90;;;;;;5046052;28;20013;-77
2023/11/07 06:39:33;;;;;;;0.10;0.10;;;8.20;99.90;;;;;;5043753;28;20508;-76
2023/11/07 06:41:59;;;;;;;0.10;0.10;;;8.20;99.90;;;;;;5042199;28;20559;-76
2023/11/07 06:44:28;;;;;;;0.10;0.10;;;8.20;99.90;;;;;;5043614;28;20079;-75
2023/11/07 06:46:55;;;;;;;0.10;0.10;;;8.30;99.90;;;;;;5042434;28;20756;-74
2023/11/07 06:49:21;;;;;;;0.10;0.10;;;8.40;99.90;;;;;;5042212;28;20039;-74
2023/11/07 06:51:47;;;;;;;0.10;0.10;;;8.40;99.90;;;;;;5041360;28;20637;-75
2023/11/07 06:54:13;;;;;;;0.10;0.10;;;8.50;99.90;;;;;;5033872;28;20075;-75
2023/11/07 06:56:38;;;;;;;0.00;0.00;;;8.50;99.90;;;;;;5044784;28;20025;-74
2023/11/07 06:59:04;;;;;;;0.10;0.10;;;8.50;99.90;;;;;;5035154;28;20039;-75
2023/11/07 07:01:30;;;;;;;0.10;0.10;;;8.50;99.90;;;;;;5034256;28;20032;-74
2023/11/07 07:03:56;;;;;;;0.10;0.10;;;8.60;99.90;;;;;;5044063;28;20475;-74
2023/11/07 07:06:23;;;;;;;0.10;0.10;;;8.50;99.90;;;;;;5034387;28;20029;-75
2023/11/07 07:08:49;;;;;;;0.10;0.10;;;8.60;99.90;;;;;;5038104;28;20037;-75
2023/11/07 07:11:15;;;;;;;0.17;0.17;;;8.60;99.90;;;;;;5045135;28;20085;-74
2023/11/07 07:13:41;;;;;;;0.10;0.10;;;8.60;99.90;;;;;;5044686;28;20630;-75
2023/11/07 07:16:08;;;;;;;0.00;0.00;;;8.50;99.90;;;;;;5027203;28;20026;-74
2023/11/07 07:18:34;;;;;;;;;;;8.50;99.90;;;;;;5040785;28;20037;-76
2023/11/07 07:21:00;;;;;;;0.10;0.10;;;8.60;99.90;;;;;;5032629;28;19916;-77
2023/11/07 07:23:25;;;;;;;0.10;0.10;;;8.60;99.90;;;;;;5035802;28;20034;-77
2023/11/07 07:25:53;;;;;;;0.10;0.10;;;8.60;99.90;;;;;;5042750;28;20072;-76
2023/11/07 07:28:20;;;;;;;0.10;0.10;;;8.60;99.90;;;;;;5032304;28;20052;-77
2023/11/07 07:30:47;;;;;;;0.10;0.10;;;8.70;99.90;;;;;;5027753;28;20034;-77
2023/11/07 07:33:16;;;;;;;0.10;0.10;;;8.90;99.90;;;;;;5030947;28;20037;-77
2023/11/07 07:35:45;;;;;;;0.10;0.10;;;9.00;99.90;;;;;;5039139;28;20040;-77
2023/11/07 07:38:10;;;;;;;0.35;0.32;;;9.10;99.90;;;;;;5032769;28;20023;-77
2023/11/07 07:40:38;;;;;;;0.10;0.10;;;8.90;99.90;;;;;;5039116;28;20033;-77
2023/11/07 07:43:10;;;;;;;0.10;0.10;;;8.80;99.90;;;;;;5042441;28;20033;-77
2023/11/07 07:45:42;;;;;;;0.20;0.20;;;8.80;99.90;;;;;;5037524;28;20037;-77
2023/11/07 07:48:10;;;;;;;0.10;0.10;;;8.60;99.90;;;;;;5044597;28;20029;-77
2023/11/07 07:50:41;;;;;;;0.10;0.10;;;8.80;99.90;;;;;;5039898;28;20140;-77
2023/11/07 07:53:08;;;;;;;0.10;0.10;;;9.10;99.90;;;;;;5037867;28;20759;-77
2023/11/07 07:55:34;;;;;;;;;;;8.90;99.90;;;;;;5042154;28;20139;-78
2023/11/07 07:58:00;;;;;;;0.10;0.10;;;8.60;99.90;;;;;;5050549;28;20023;-77
2023/11/07 08:00:30;;;;;;;0.10;0.10;;;8.90;99.90;;;;;;5040988;28;20056;-77
2023/11/07 08:03:06;;;;;;;0.10;0.10;;;9.20;99.90;;;;;;5048770;28;20135;-77
2023/11/07 08:05:33;;;;;;;0.10;0.10;;;9.30;99.90;;;;;;5048704;28;20044;-77
2023/11/07 08:07:59;;;;;;;;;;;9.20;99.90;;;;;;5051102;28;20147;-77
2023/11/07 08:10:26;;;;;;;0.03;0.03;;;9.00;99.90;;;;;;5050699;28;19911;-77
2023/11/07 08:12:55;;;;;;;0.10;0.10;;;8.80;99.90;;;;;;5043663;28;20086;-75
2023/11/07 08:15:22;;;;;;;0.10;0.10;;;9.00;99.90;;;;;;5044097;28;20025;-77
2023/11/07 08:17:50;;;;;;;0.10;0.10;;;9.10;99.90;;;;;;5046832;28;20021;-76
2023/11/07 08:20:19;;;;;;;0.00;0.00;;;9.10;99.90;;;;;;5046459;28;20929;-77
2023/11/07 08:22:46;;;;;;;0.10;0.10;;;8.90;99.90;;;;;;5052430;28;20036;-77
2023/11/07 08:25:12;;;;;;;0.00;0.00;;;9.00;99.90;;;;;;5047592;28;20047;-76
2023/11/07 08:27:39;;;;;;;;;;;9.20;99.90;;;;;;5049990;28;20115;-76
2023/11/07 08:30:13;;;;;;;0.10;0.10;;;9.20;99.90;;;;;;5051270;28;19908;-77
2023/11/07 08:32:42;;;;;;;0.10;0.10;;;9.20;99.90;;;;;;5049508;28;20044;-77
2023/11/07 08:35:11;;;;;;;0.10;0.10;;;9.20;99.90;;;;;;5049582;28;20067;-76
2023/11/07 08:37:38;;;;;;;0.00;0.00;;;9.00;99.90;;;;;;5048064;28;20025;-77
2023/11/07 08:40:06;;;;;;;0.10;0.10;;;9.10;99.90;;;;;;5048656;28;20033;-76
2023/11/07 08:42:32;;;;;;;0.10;0.10;;;9.20;99.90;;;;;;5052597;28;20139;-77
2023/11/07 08:44:59;;;;;;;0.00;0.00;;;9.10;99.90;;;;;;5049584;28;20136;-76
2023/11/07 08:47:25;;;;;;;;;;;9.30;99.90;;;;;;5050255;28;20028;-77
2023/11/07 08:49:55;;;;;;;0.10;0.10;;;9.20;99.90;;;;;;5052150;28;20019;-76
2023/11/07 08:52:21;;;;;;;0.10;0.10;;;9.00;99.90;;;;;;5049144;28;20118;-76
2023/11/07 08:54:47;;;;;;;0.00;0.00;;;9.20;99.90;;;;;;5049802;28;20017;-76
2023/11/07 08:57:13;;;;;;;0.10;0.10;;;9.50;99.90;;;;;;5049495;28;20071;-77
2023/11/07 08:59:44;;;;;;;0.10;0.10;;;9.60;99.90;;;;;;5052235;28;20017;-77
2023/11/07 09:02:13;;;;;;;0.10;0.10;;;9.70;99.90;;;;;;5048775;28;20048;-77
2023/11/07 09:04:38;;;;;;;0.10;0.10;;;9.60;99.90;;;;;;5049515;28;20035;-77
2023/11/07 09:07:06;;;;;;;0.10;0.10;;;9.10;99.90;;;;;;5048281;28;20025;-77
2023/11/07 09:09:33;;;;;;;0.00;0.00;;;9.20;99.90;;;;;;5050181;28;20028;-76
2023/11/07 09:12:00;;;;;;;0.10;0.10;;;9.40;99.90;;;;;;5047637;28;20032;-76
2023/11/07 09:14:26;;;;;;;0.10;0.10;;;9.50;99.90;;;;;;5046308;28;20037;-76
2023/11/07 09:16:52;;;;;;;0.10;0.10;;;9.50;99.90;;;;;;5048712;28;20040;-77
2023/11/07 09:19:18;;;;;;;0.10;0.10;;;9.90;99.90;;;;;;5048845;28;20028;-76
2023/11/07 09:21:44;;;;;;;0.00;0.00;;;10.70;99.90;;;;;;5048617;28;20264;-76
2023/11/07 09:24:10;;;;;;;0.10;0.10;;;10.80;99.90;;;;;;5048779;28;20111;-77
2023/11/07 09:26:36;;;;;;;0.08;0.08;;;11.20;99.90;;;;;;5057101;28;20063;-77
2023/11/07 09:29:01;;;;;;;0.00;0.00;;;10.80;99.90;;;;;;5053816;28;20040;-78
2023/11/07 09:31:28;;;;;;;0.00;0.00;;;10.20;99.90;;;;;;5049120;28;20021;-77
2023/11/07 09:33:54;;;;;;;0.05;0.05;;;10.40;99.90;;;;;;5048895;28;20028;-77
2023/11/07 09:36:20;;;;;;;0.00;0.00;;;10.70;99.90;;;;;;5052767;28;20033;-76
2023/11/07 09:38:46;;;;;;;0.00;0.00;;;10.50;99.90;;;;;;5047596;28;20035;-76
2023/11/07 09:41:12;;;;;;;0.10;0.10;;;11.00;99.90;;;;;;5055004;28;20090;-77
2023/11/07 09:43:38;;;;;;;0.10;0.10;;;11.80;99.90;;;;;;5048720;28;20474;-76
2023/11/07 09:46:06;;;;;;;0.10;0.10;;;11.40;99.90;;;;;;5048605;28;20032;-77
2023/11/07 09:48:31;;;;;;;0.10;0.10;;;11.20;99.90;;;;;;5048347;28;20024;-77
2023/11/07 09:50:58;;;;;;;0.10;0.10;;;10.90;99.90;;;;;;5047765;28;20029;-76
2023/11/07 09:53:24;;;;;;;0.10;0.10;;;10.20;99.90;;;;;;5047070;28;20082;-77
2023/11/07 09:55:52;;;;;;;0.00;0.00;;;10.60;99.90;;;;;;5057450;28;20048;-77
2023/11/07 09:58:29;;;;;;;0.10;0.10;;;10.90;99.90;;;;;;5048085;28;20025;-77
2023/11/07 10:00:58;;;;;;;0.00;0.00;;;11.10;99.90;;;;;;5049983;28;20025;-77
2023/11/07 10:03:24;;;;;;;0.10;0.10;;;11.00;99.90;;;;;;5047723;28;20088;-77
2023/11/07 10:05:51;;;;;;;0.10;0.10;;;11.40;99.90;;;;;;5046621;28;20757;-77
2023/11/07 10:08:22;;;;;;;0.10;0.10;;;11.80;99.90;;;;;;5047823;28;20040;-77
2023/11/07 10:11:11;;;;;;;1.27;0.60;;;11.90;99.90;;;;;;5052245;28;20037;-78
2023/11/07 10:13:37;;;;;;;0.10;0.10;;;12.10;99.90;;;;;;5050283;28;20021;-77
2023/11/07 10:16:07;;;;;;;0.10;0.10;;;12.30;99.90;;;;;;5048796;28;20622;-77
2023/11/07 10:18:49;;;;;;;0.10;0.10;;;12.20;99.90;;;;;;5046710;28;20080;-76
2023/11/07 10:21:16;;;;;;;0.05;0.05;;;12.10;99.90;;;;;;5051910;28;20033;-77
2023/11/07 10:23:42;;;;;;;0.10;0.10;;;12.10;99.90;;;;;;5041274;28;20036;-77
2023/11/07 10:26:15;;;;;;;0.10;0.10;;;12.10;99.90;;;;;;5047686;28;20483;-77
2023/11/07 10:28:41;;;;;;;0.10;0.10;;;12.20;99.90;;;;;;5047550;28;20120;-77
2023/11/07 10:31:20;;;;;;;0.00;0.00;;;12.10;99.90;;;;;;5047092;28;20135;-77
2023/11/07 10:33:46;;;;;;;0.10;0.10;;;12.10;99.90;;;;;;5044455;28;20166;-77
2023/11/07 10:36:12;;;;;;;0.00;0.00;;;11.70;99.90;;;;;;5046159;28;20071;-77
2023/11/07 10:38:39;;;;;;;0.10;0.10;;;12.00;99.90;;;;;;5046345;28;20063;-76
2023/11/07 10:41:05;;;;;;;0.10;0.10;;;12.00;99.90;;;;;;5053488;28;20044;-77
2023/11/07 10:43:35;;;;;;;0.10;0.10;;;12.00;99.90;;;;;;5048085;28;20033;-77
2023/11/07 10:46:04;;;;;;;0.10;0.10;;;12.60;99.50;;;;;;5046140;28;20117;-77
2023/11/07 10:48:38;;;;;;;0.10;0.10;;;12.20;99.60;;;;;;5045870;28;20036;-77
2023/11/07 10:51:05;;;;;;;0.10;0.10;;;11.00;99.90;;;;;;5043074;28;20074;-77
2023/11/07 10:53:33;;;;;;;;;;;10.50;99.90;;;;;;5041768;28;20021;-76
2023/11/07 10:56:00;;;;;;;0.00;0.00;;;10.50;99.90;;;;;;5042780;28;19926;-76
2023/11/07 10:58:32;;;;;;;;;;;10.90;99.90;;;;;;5048501;28;20029;-77
2023/11/07 11:01:04;;;;;;;0.00;0.00;;;10.40;99.90;;;;;;5043385;28;19948;-76
2023/11/07 11:03:33;;;;;;;0.10;0.10;;;10.60;99.90;;;;;;5047634;28;20056;-77
2023/11/07 11:06:02;;;;;;;0.08;0.08;;;10.50;99.90;;;;;;5047709;28;20079;-76
2023/11/07 11:08:29;;;;;;;0.10;0.10;;;10.60;99.90;;;;;;5047620;28;20104;-76
2023/11/07 11:10:57;;;;;;;0.10;0.10;;;11.30;99.90;;;;;;5051822;28;20115;-76
2023/11/07 11:13:26;;;;;;;0.10;0.10;;;11.60;99.90;;;;;;5047770;28;20032;-76
2023/11/07 11:15:57;;;;;;;0.00;0.00;;;11.70;99.90;;;;;;5049620;28;20025;-77
2023/11/07 11:18:52;;;;;;;0.10;0.10;;;12.00;99.90;;;;;;5048770;28;20029;-77
2023/11/07 11:21:27;;;;;;;0.10;0.10;;;11.90;99.70;;;;;;5046889;28;20052;-76
2023/11/07 11:24:04;;;;;;;0.10;0.10;;;11.60;99.90;;;;;;5053791;28;20643;-76
2023/11/07 11:26:52;;;;;;;0.10;0.10;;;11.10;99.90;;;;;;5055111;28;20695;-77
2023/11/07 11:29:25;;;;;;;0.10;0.10;;;11.10;99.90;;;;;;5055265;28;20111;-77
2023/11/07 11:31:51;;;;;;;0.10;0.10;;;11.40;99.90;;;;;;5050281;28;20571;-77
2023/11/07 11:34:29;;;;;;;0.10;0.10;;;11.80;99.90;;;;;;5050654;28;20043;-77
2023/11/07 11:36:59;;;;;;;0.00;0.00;;;12.00;99.60;;;;;;5060894;28;20087;-77
2023/11/07 11:39:29;;;;;;;0.00;0.00;;;11.80;99.70;;;;;;5045471;28;20028;-76
2023/11/07 11:42:01;;;;;;;0.10;0.10;;;11.60;99.90;;;;;;5056294;28;20076;-76
2023/11/07 11:44:26;;;;;;;0.10;0.10;;;11.70;99.90;;;;;;5056555;28;20500;-76
2023/11/07 11:46:56;;;;;;;0.10;0.10;;;11.40;99.90;;;;;;5056723;28;20021;-76
2023/11/07 11:49:23;;;;;;;0.10;0.10;;;11.20;99.90;;;;;;5061052;28;20055;-76
2023/11/07 11:51:53;;;;;;;0.00;0.00;;;11.20;99.90;;;;;;5050423;28;20013;-76
2023/11/07 11:54:24;;;;;;;0.10;0.10;;;11.40;99.90;;;;;;5050424;28;20028;-77
2023/11/07 11:56:50;;;;;;;0.10;0.10;;;11.40;99.90;;;;;;5046517;28;20025;-77
2023/11/07 11:59:24;;;;;;;0.00;0.00;;;11.60;99.90;;;;;;5055070;28;20028;-77
2023/11/07 12:02:04;;;;;;;0.10;0.10;;;11.60;99.90;;;;;;5050330;28;20028;-77
2023/11/07 12:04:47;;;;;;;0.10;0.10;;;11.60;99.90;;;;;;5056294;28;20028;-76
2023/11/07 12:07:13;;;;;;;0.00;0.00;;;11.60;99.90;;;;;;5056182;28;20052;-77
2023/11/07 12:09:39;;;;;;;0.10;0.10;;;11.40;99.90;;;;;;5056344;28;20052;-76
2023/11/07 12:12:07;;;;;;;0.10;0.10;;;11.40;99.90;;;;;;5056132;28;20021;-76
2023/11/07 12:14:33;;;;;;;0.10;0.10;;;11.40;99.90;;;;;;5050487;28;20052;-76
2023/11/07 12:17:00;;;;;;;0.00;0.00;;;11.60;99.90;;;;;;5051348;28;20025;-76
2023/11/07 12:19:28;;;;;;;0.00;0.00;;;11.60;99.90;;;;;;5054929;28;20033;-76
2023/11/07 12:21:56;;;;;;;0.00;0.00;;;11.10;99.90;;;;;;5042777;28;20025;-76
2023/11/07 12:24:22;;;;;;;0.10;0.10;;;11.00;99.90;;;;;;5048944;28;20183;-76
2023/11/07 12:26:49;;;;;;;0.10;0.10;;;11.00;99.90;;;;;;5046136;28;20104;-77
2023/11/07 12:29:32;;;;;;;0.10;0.10;;;11.20;99.90;;;;;;5049852;28;20587;-77
2023/11/07 12:31:57;;;;;;;0.00;0.00;;;11.30;99.90;;;;;;5048352;28;20111;-76
2023/11/07 12:34:34;;;;;;;0.00;0.00;;;11.30;99.90;;;;;;5056781;28;20020;-76
2023/11/07 12:37:09;;;;;;;0.10;0.10;;;11.60;99.90;;;;;;5052053;28;20017;-76
2023/11/07 12:39:36;;;;;;;0.10;0.10;;;11.90;99.90;;;;;;5050214;28;20029;-76
2023/11/07 12:42:02;;;;;;;0.00;0.00;;;11.80;99.90;;;;;;5050939;28;20049;-77
2023/11/07 12:44:28;;;;;;;0.10;0.10;;;11.60;99.90;;;;;;5053739;28;20110;-77
2023/11/07 12:46:54;;;;;;;0.00;0.00;;;11.40;99.90;;;;;;5048184;28;20025;-77
2023/11/07 12:49:20;;;;;;;0.00;0.00;;;11.50;99.90;;;;;;5049813;28;20036;-77
2023/11/07 12:51:47;;;;;;;0.00;0.00;;;11.80;99.90;;;;;;5049486;28;20087;-78
2023/11/07 12:54:13;;;;;;;0.00;0.00;;;12.20;99.90;;;;;;5055667;28;20036;-77
2023/11/07 12:56:44;;;;;;;0.00;0.00;;;12.50;99.90;;;;;;5049363;28;20124;-77